Weather at San Diego International Airport

Public forecast

Using degrees Fahrenheit for public forecast. Weather courtesy of forecast.io.

Current aviation weather report (METAR) for San Diego International Airport

Retrieved 2021/05/11 17:51 UTC (40 minutes ago):

KSAN 111751Z 26007KT 10SM OVC018 17/12 A2998 RMK AO2 SLP152 T01720117 10178 20167 51005

Aviation forecast (TAF) for San Diego International Airport

Retrieved 2021/05/11 18:42 UTC (0 seconds ago):

TAF COR KSAN 111740Z 1118/1224 VRB04KT P6SM OVC019 FM111900 27009KT P6SM FEW020 FM120300 VRB04KT P6SM SCT015 FM120600 VRB04KT P6SM OVC012 FM121900 27009KT P6SM SCT015